sensor_id;sensor_type;location;lat;lon;timestamp;P1;durP1;ratioP1;P2;durP2;ratioP2
18499;SDS011;9379;52.134;11.576;2022-11-14T00:00:59;15.55;;;11.27;;
18499;SDS011;9379;52.134;11.576;2022-11-14T00:03:31;17.42;;;13.13;;
18499;SDS011;9379;52.134;11.576;2022-11-14T00:05:57;16.13;;;12.95;;
18499;SDS011;9379;52.134;11.576;2022-11-14T00:08:26;18.13;;;11.93;;
18499;SDS011;9379;52.134;11.576;2022-11-14T00:10:52;17.23;;;11.93;;
18499;SDS011;9379;52.134;11.576;2022-11-14T00:13:19;16.13;;;12.23;;
18499;SDS011;9379;52.134;11.576;2022-11-14T00:15:47;21.27;;;14.18;;
18499;SDS011;9379;52.134;11.576;2022-11-14T00:18:14;19.30;;;13.60;;
18499;SDS011;9379;52.134;11.576;2022-11-14T00:20:41;19.63;;;15.65;;
18499;SDS011;9379;52.134;11.576;2022-11-14T00:23:08;21.35;;;16.00;;
18499;SDS011;9379;52.134;11.576;2022-11-14T00:25:36;18.38;;;13.30;;
18499;SDS011;9379;52.134;11.576;2022-11-14T00:28:03;19.40;;;13.77;;
18499;SDS011;9379;52.134;11.576;2022-11-14T00:30:30;15.80;;;12.32;;
18499;SDS011;9379;52.134;11.576;2022-11-14T00:32:56;23.27;;;13.25;;
18499;SDS011;9379;52.134;11.576;2022-11-14T00:35:23;20.27;;;13.43;;
18499;SDS011;9379;52.134;11.576;2022-11-14T00:37:50;16.63;;;11.70;;
18499;SDS011;9379;52.134;11.576;2022-11-14T00:40:17;14.13;;;11.35;;
18499;SDS011;9379;52.134;11.576;2022-11-14T00:42:45;19.48;;;11.18;;
18499;SDS011;9379;52.134;11.576;2022-11-14T00:45:12;15.27;;;11.25;;
18499;SDS011;9379;52.134;11.576;2022-11-14T00:47:38;20.35;;;13.45;;
18499;SDS011;9379;52.134;11.576;2022-11-14T00:50:05;20.92;;;12.32;;
18499;SDS011;9379;52.134;11.576;2022-11-14T00:52:33;20.75;;;13.88;;
18499;SDS011;9379;52.134;11.576;2022-11-14T00:54:59;17.17;;;14.20;;
18499;SDS011;9379;52.134;11.576;2022-11-14T00:57:26;19.30;;;12.90;;
18499;SDS011;9379;52.134;11.576;2022-11-14T00:59:54;16.63;;;11.80;;
18499;SDS011;9379;52.134;11.576;2022-11-14T01:02:21;16.15;;;12.55;;
18499;SDS011;9379;52.134;11.576;2022-11-14T01:04:48;12.13;;;9.13;;
18499;SDS011;9379;52.134;11.576;2022-11-14T01:07:15;14.13;;;9.68;;
18499;SDS011;9379;52.134;11.576;2022-11-14T01:09:42;19.67;;;11.27;;
18499;SDS011;9379;52.134;11.576;2022-11-14T01:12:09;19.48;;;12.52;;
18499;SDS011;9379;52.134;11.576;2022-11-14T01:14:35;17.50;;;13.30;;
18499;SDS011;9379;52.134;11.576;2022-11-14T01:17:03;17.65;;;11.63;;
18499;SDS011;9379;52.134;11.576;2022-11-14T01:19:30;20.20;;;11.65;;
18499;SDS011;9379;52.134;11.576;2022-11-14T01:21:57;15.50;;;10.82;;
18499;SDS011;9379;52.134;11.576;2022-11-14T01:24:24;13.77;;;9.13;;
18499;SDS011;9379;52.134;11.576;2022-11-14T01:26:52;13.30;;;9.90;;
18499;SDS011;9379;52.134;11.576;2022-11-14T01:29:20;15.27;;;10.38;;
18499;SDS011;9379;52.134;11.576;2022-11-14T01:31:47;17.38;;;12.27;;
18499;SDS011;9379;52.134;11.576;2022-11-14T01:34:15;15.18;;;10.35;;
18499;SDS011;9379;52.134;11.576;2022-11-14T01:36:42;17.73;;;10.90;;
18499;SDS011;9379;52.134;11.576;2022-11-14T01:39:08;14.55;;;11.23;;
18499;SDS011;9379;52.134;11.576;2022-11-14T01:47:32;14.60;;;10.45;;
18499;SDS011;9379;52.134;11.576;2022-11-14T01:50:01;18.90;;;13.88;;
18499;SDS011;9379;52.134;11.576;2022-11-14T01:52:32;19.27;;;12.05;;
18499;SDS011;9379;52.134;11.576;2022-11-14T01:55:02;17.63;;;12.45;;
18499;SDS011;9379;52.134;11.576;2022-11-14T01:57:32;19.98;;;12.27;;
18499;SDS011;9379;52.134;11.576;2022-11-14T02:00:04;14.10;;;12.00;;
18499;SDS011;9379;52.134;11.576;2022-11-14T02:02:33;15.68;;;12.95;;
18499;SDS011;9379;52.134;11.576;2022-11-14T02:05:03;17.42;;;12.45;;
18499;SDS011;9379;52.134;11.576;2022-11-14T02:07:32;20.00;;;14.20;;
18499;SDS011;9379;52.134;11.576;2022-11-14T02:10:04;17.98;;;12.50;;
18499;SDS011;9379;52.134;11.576;2022-11-14T02:12:32;16.52;;;13.82;;
18499;SDS011;9379;52.134;11.576;2022-11-14T02:15:00;21.73;;;15.95;;
18499;SDS011;9379;52.134;11.576;2022-11-14T02:17:27;30.90;;;15.23;;
18499;SDS011;9379;52.134;11.576;2022-11-14T02:19:55;23.10;;;15.40;;
18499;SDS011;9379;52.134;11.576;2022-11-14T02:22:29;18.90;;;13.80;;
18499;SDS011;9379;52.134;11.576;2022-11-14T02:24:56;19.08;;;11.75;;
18499;SDS011;9379;52.134;11.576;2022-11-14T02:27:22;16.95;;;11.02;;
18499;SDS011;9379;52.134;11.576;2022-11-14T02:29:50;21.45;;;16.08;;
18499;SDS011;9379;52.134;11.576;2022-11-14T02:32:16;48.05;;;16.70;;
18499;SDS011;9379;52.134;11.576;2022-11-14T02:34:43;20.25;;;15.05;;
18499;SDS011;9379;52.134;11.576;2022-11-14T02:37:12;22.25;;;13.88;;
18499;SDS011;9379;52.134;11.576;2022-11-14T02:39:39;20.27;;;14.65;;
18499;SDS011;9379;52.134;11.576;2022-11-14T02:42:06;22.42;;;14.93;;
18499;SDS011;9379;52.134;11.576;2022-11-14T02:44:32;23.48;;;14.70;;
18499;SDS011;9379;52.134;11.576;2022-11-14T02:46:59;18.92;;;11.00;;
18499;SDS011;9379;52.134;11.576;2022-11-14T02:49:26;13.55;;;10.23;;
18499;SDS011;9379;52.134;11.576;2022-11-14T02:51:53;20.63;;;12.88;;
18499;SDS011;9379;52.134;11.576;2022-11-14T02:54:21;22.48;;;12.48;;
18499;SDS011;9379;52.134;11.576;2022-11-14T02:56:48;15.18;;;10.32;;
18499;SDS011;9379;52.134;11.576;2022-11-14T02:59:15;18.48;;;11.32;;
18499;SDS011;9379;52.134;11.576;2022-11-14T03:01:42;18.77;;;12.43;;
18499;SDS011;9379;52.134;11.576;2022-11-14T03:04:09;22.08;;;14.27;;
18499;SDS011;9379;52.134;11.576;2022-11-14T03:06:36;27.42;;;17.20;;
18499;SDS011;9379;52.134;11.576;2022-11-14T03:09:03;19.83;;;13.93;;
18499;SDS011;9379;52.134;11.576;2022-11-14T03:11:32;24.02;;;14.15;;
18499;SDS011;9379;52.134;11.576;2022-11-14T03:13:59;17.52;;;12.00;;
18499;SDS011;9379;52.134;11.576;2022-11-14T03:16:26;19.60;;;14.32;;
18499;SDS011;9379;52.134;11.576;2022-11-14T03:18:53;22.15;;;12.52;;
18499;SDS011;9379;52.134;11.576;2022-11-14T03:21:20;17.20;;;12.30;;
18499;SDS011;9379;52.134;11.576;2022-11-14T03:23:48;16.73;;;11.95;;
18499;SDS011;9379;52.134;11.576;2022-11-14T03:26:15;19.35;;;14.23;;
18499;SDS011;9379;52.134;11.576;2022-11-14T03:28:43;20.27;;;14.05;;
18499;SDS011;9379;52.134;11.576;2022-11-14T03:31:11;20.23;;;15.82;;
18499;SDS011;9379;52.134;11.576;2022-11-14T03:33:39;23.00;;;14.57;;
18499;SDS011;9379;52.134;11.576;2022-11-14T03:36:06;22.42;;;15.07;;
18499;SDS011;9379;52.134;11.576;2022-11-14T03:38:34;18.10;;;13.77;;
18499;SDS011;9379;52.134;11.576;2022-11-14T03:41:01;16.98;;;14.20;;
18499;SDS011;9379;52.134;11.576;2022-11-14T03:43:29;18.48;;;14.45;;
18499;SDS011;9379;52.134;11.576;2022-11-14T03:45:59;16.13;;;10.95;;
18499;SDS011;9379;52.134;11.576;2022-11-14T03:48:26;15.65;;;11.43;;
18499;SDS011;9379;52.134;11.576;2022-11-14T03:50:54;19.13;;;11.70;;
18499;SDS011;9379;52.134;11.576;2022-11-14T03:53:21;18.40;;;13.65;;
18499;SDS011;9379;52.134;11.576;2022-11-14T03:55:48;19.73;;;14.43;;
18499;SDS011;9379;52.134;11.576;2022-11-14T03:58:18;26.17;;;16.88;;
18499;SDS011;9379;52.134;11.576;2022-11-14T04:00:47;24.65;;;15.00;;
18499;SDS011;9379;52.134;11.576;2022-11-14T04:03:15;21.75;;;14.73;;
18499;SDS011;9379;52.134;11.576;2022-11-14T04:05:42;17.13;;;13.70;;
18499;SDS011;9379;52.134;11.576;2022-11-14T04:08:10;20.90;;;14.65;;
18499;SDS011;9379;52.134;11.576;2022-11-14T04:10:37;21.38;;;14.57;;
18499;SDS011;9379;52.134;11.576;2022-11-14T04:13:05;16.23;;;12.27;;
18499;SDS011;9379;52.134;11.576;2022-11-14T04:18:00;17.65;;;13.13;;
18499;SDS011;9379;52.134;11.576;2022-11-14T04:20:28;17.63;;;11.95;;
18499;SDS011;9379;52.134;11.576;2022-11-14T04:22:55;23.08;;;14.10;;
18499;SDS011;9379;52.134;11.576;2022-11-14T04:25:22;18.85;;;13.55;;
18499;SDS011;9379;52.134;11.576;2022-11-14T04:27:49;20.33;;;14.18;;
18499;SDS011;9379;52.134;11.576;2022-11-14T04:30:15;18.52;;;13.30;;
18499;SDS011;9379;52.134;11.576;2022-11-14T04:32:43;21.40;;;14.55;;
18499;SDS011;9379;52.134;11.576;2022-11-14T04:35:12;23.55;;;17.05;;
18499;SDS011;9379;52.134;11.576;2022-11-14T04:37:40;25.45;;;14.82;;
18499;SDS011;9379;52.134;11.576;2022-11-14T04:40:07;23.60;;;15.45;;
18499;SDS011;9379;52.134;11.576;2022-11-14T04:42:34;22.08;;;15.13;;
18499;SDS011;9379;52.134;11.576;2022-11-14T04:45:01;19.42;;;13.45;;
18499;SDS011;9379;52.134;11.576;2022-11-14T04:47:29;32.47;;;17.00;;
18499;SDS011;9379;52.134;11.576;2022-11-14T04:49:55;25.55;;;18.33;;
18499;SDS011;9379;52.134;11.576;2022-11-14T04:52:22;24.77;;;15.80;;
18499;SDS011;9379;52.134;11.576;2022-11-14T04:54:50;26.90;;;17.20;;
18499;SDS011;9379;52.134;11.576;2022-11-14T04:57:17;23.92;;;16.70;;
18499;SDS011;9379;52.134;11.576;2022-11-14T04:59:44;27.98;;;18.00;;
18499;SDS011;9379;52.134;11.576;2022-11-14T05:02:10;29.08;;;19.75;;
18499;SDS011;9379;52.134;11.576;2022-11-14T05:04:37;29.88;;;18.98;;
18499;SDS011;9379;52.134;11.576;2022-11-14T05:07:04;26.35;;;17.27;;
18499;SDS011;9379;52.134;11.576;2022-11-14T05:09:30;22.58;;;14.70;;
18499;SDS011;9379;52.134;11.576;2022-11-14T05:11:58;18.75;;;14.90;;
18499;SDS011;9379;52.134;11.576;2022-11-14T05:14:25;24.83;;;17.08;;
18499;SDS011;9379;52.134;11.576;2022-11-14T05:16:52;22.92;;;15.43;;
18499;SDS011;9379;52.134;11.576;2022-11-14T05:19:19;18.20;;;14.20;;
18499;SDS011;9379;52.134;11.576;2022-11-14T05:21:45;20.80;;;13.15;;
18499;SDS011;9379;52.134;11.576;2022-11-14T05:24:12;27.42;;;17.98;;
18499;SDS011;9379;52.134;11.576;2022-11-14T05:26:39;22.85;;;17.25;;
18499;SDS011;9379;52.134;11.576;2022-11-14T05:29:07;29.15;;;20.85;;
18499;SDS011;9379;52.134;11.576;2022-11-14T05:31:34;27.67;;;20.08;;
18499;SDS011;9379;52.134;11.576;2022-11-14T05:34:01;25.63;;;16.45;;
18499;SDS011;9379;52.134;11.576;2022-11-14T05:36:27;28.35;;;20.73;;
18499;SDS011;9379;52.134;11.576;2022-11-14T05:38:54;28.42;;;18.30;;
18499;SDS011;9379;52.134;11.576;2022-11-14T05:41:21;28.27;;;16.50;;
18499;SDS011;9379;52.134;11.576;2022-11-14T05:43:47;25.42;;;15.93;;
18499;SDS011;9379;52.134;11.576;2022-11-14T05:46:16;22.50;;;14.95;;
18499;SDS011;9379;52.134;11.576;2022-11-14T05:48:42;25.38;;;17.63;;
18499;SDS011;9379;52.134;11.576;2022-11-14T05:51:10;30.45;;;20.33;;
18499;SDS011;9379;52.134;11.576;2022-11-14T05:53:38;27.13;;;17.90;;
18499;SDS011;9379;52.134;11.576;2022-11-14T05:56:06;23.83;;;17.30;;
18499;SDS011;9379;52.134;11.576;2022-11-14T05:58:35;20.60;;;15.77;;
18499;SDS011;9379;52.134;11.576;2022-11-14T06:01:02;29.33;;;17.85;;
18499;SDS011;9379;52.134;11.576;2022-11-14T06:03:32;22.73;;;16.77;;
18499;SDS011;9379;52.134;11.576;2022-11-14T06:06:00;23.27;;;17.35;;
18499;SDS011;9379;52.134;11.576;2022-11-14T06:08:27;26.70;;;18.42;;
18499;SDS011;9379;52.134;11.576;2022-11-14T06:10:54;23.75;;;16.73;;
18499;SDS011;9379;52.134;11.576;2022-11-14T06:13:21;24.38;;;15.80;;
18499;SDS011;9379;52.134;11.576;2022-11-14T06:15:48;26.00;;;17.38;;
18499;SDS011;9379;52.134;11.576;2022-11-14T06:18:15;20.48;;;16.25;;
18499;SDS011;9379;52.134;11.576;2022-11-14T06:20:44;23.75;;;15.00;;
18499;SDS011;9379;52.134;11.576;2022-11-14T06:23:10;26.42;;;18.48;;
18499;SDS011;9379;52.134;11.576;2022-11-14T06:25:37;29.67;;;20.13;;
18499;SDS011;9379;52.134;11.576;2022-11-14T06:28:04;27.67;;;15.48;;
18499;SDS011;9379;52.134;11.576;2022-11-14T06:30:31;19.17;;;15.15;;
18499;SDS011;9379;52.134;11.576;2022-11-14T06:32:57;25.95;;;17.83;;
18499;SDS011;9379;52.134;11.576;2022-11-14T06:35:24;25.33;;;17.27;;
18499;SDS011;9379;52.134;11.576;2022-11-14T06:37:52;24.77;;;14.70;;
18499;SDS011;9379;52.134;11.576;2022-11-14T06:40:19;22.35;;;15.00;;
18499;SDS011;9379;52.134;11.576;2022-11-14T06:42:46;22.50;;;17.27;;
18499;SDS011;9379;52.134;11.576;2022-11-14T06:45:13;21.83;;;15.80;;
18499;SDS011;9379;52.134;11.576;2022-11-14T06:47:39;32.22;;;18.25;;
18499;SDS011;9379;52.134;11.576;2022-11-14T06:50:07;24.85;;;16.23;;
18499;SDS011;9379;52.134;11.576;2022-11-14T06:52:34;23.42;;;15.10;;
18499;SDS011;9379;52.134;11.576;2022-11-14T06:55:02;28.25;;;17.25;;
18499;SDS011;9379;52.134;11.576;2022-11-14T06:57:29;20.48;;;14.35;;
18499;SDS011;9379;52.134;11.576;2022-11-14T06:59:56;21.55;;;15.35;;
18499;SDS011;9379;52.134;11.576;2022-11-14T07:02:22;23.77;;;15.80;;
18499;SDS011;9379;52.134;11.576;2022-11-14T07:04:49;20.98;;;14.00;;
18499;SDS011;9379;52.134;11.576;2022-11-14T07:07:16;24.75;;;17.75;;
18499;SDS011;9379;52.134;11.576;2022-11-14T07:09:43;23.75;;;16.40;;
18499;SDS011;9379;52.134;11.576;2022-11-14T07:12:11;30.73;;;17.67;;
18499;SDS011;9379;52.134;11.576;2022-11-14T07:14:37;21.45;;;15.13;;
18499;SDS011;9379;52.134;11.576;2022-11-14T07:17:04;28.08;;;15.38;;
18499;SDS011;9379;52.134;11.576;2022-11-14T07:19:31;24.63;;;16.60;;
18499;SDS011;9379;52.134;11.576;2022-11-14T07:21:58;22.85;;;15.10;;
18499;SDS011;9379;52.134;11.576;2022-11-14T07:24:24;21.75;;;14.82;;
18499;SDS011;9379;52.134;11.576;2022-11-14T07:26:51;20.30;;;16.83;;
18499;SDS011;9379;52.134;11.576;2022-11-14T07:29:19;21.55;;;14.50;;
18499;SDS011;9379;52.134;11.576;2022-11-14T07:31:46;19.33;;;13.93;;
18499;SDS011;9379;52.134;11.576;2022-11-14T07:34:13;18.55;;;14.07;;
18499;SDS011;9379;52.134;11.576;2022-11-14T07:36:40;21.73;;;14.88;;
18499;SDS011;9379;52.134;11.576;2022-11-14T07:39:07;26.23;;;16.90;;
18499;SDS011;9379;52.134;11.576;2022-11-14T07:41:33;21.77;;;15.75;;
18499;SDS011;9379;52.134;11.576;2022-11-14T07:44:00;21.67;;;14.00;;
18499;SDS011;9379;52.134;11.576;2022-11-14T07:46:28;27.08;;;18.58;;
18499;SDS011;9379;52.134;11.576;2022-11-14T07:48:55;21.05;;;14.05;;
18499;SDS011;9379;52.134;11.576;2022-11-14T07:51:22;18.85;;;14.05;;
18499;SDS011;9379;52.134;11.576;2022-11-14T07:53:50;22.08;;;16.00;;
18499;SDS011;9379;52.134;11.576;2022-11-14T07:56:17;18.92;;;14.73;;
18499;SDS011;9379;52.134;11.576;2022-11-14T07:58:44;21.38;;;14.73;;
18499;SDS011;9379;52.134;11.576;2022-11-14T08:01:12;18.45;;;13.25;;
18499;SDS011;9379;52.134;11.576;2022-11-14T08:03:41;21.83;;;13.55;;
18499;SDS011;9379;52.134;11.576;2022-11-14T08:06:08;26.58;;;19.88;;
18499;SDS011;9379;52.134;11.576;2022-11-14T08:08:36;24.00;;;16.27;;
18499;SDS011;9379;52.134;11.576;2022-11-14T08:11:04;21.48;;;16.10;;
18499;SDS011;9379;52.134;11.576;2022-11-14T08:13:31;23.40;;;16.80;;
18499;SDS011;9379;52.134;11.576;2022-11-14T08:16:02;24.45;;;14.02;;
18499;SDS011;9379;52.134;11.576;2022-11-14T08:18:29;17.52;;;14.00;;
18499;SDS011;9379;52.134;11.576;2022-11-14T08:20:57;22.35;;;14.50;;
18499;SDS011;9379;52.134;11.576;2022-11-14T08:23:24;20.50;;;14.32;;
18499;SDS011;9379;52.134;11.576;2022-11-14T08:25:51;22.77;;;14.10;;
18499;SDS011;9379;52.134;11.576;2022-11-14T08:28:18;26.90;;;17.83;;
18499;SDS011;9379;52.134;11.576;2022-11-14T08:30:44;23.98;;;16.35;;
18499;SDS011;9379;52.134;11.576;2022-11-14T08:33:11;27.55;;;18.40;;
18499;SDS011;9379;52.134;11.576;2022-11-14T08:35:38;24.75;;;16.70;;
18499;SDS011;9379;52.134;11.576;2022-11-14T08:38:06;27.23;;;18.45;;
18499;SDS011;9379;52.134;11.576;2022-11-14T08:40:33;21.90;;;13.13;;
18499;SDS011;9379;52.134;11.576;2022-11-14T08:43:00;23.02;;;15.38;;
18499;SDS011;9379;52.134;11.576;2022-11-14T08:45:27;18.25;;;13.77;;
18499;SDS011;9379;52.134;11.576;2022-11-14T08:47:54;17.70;;;12.82;;
18499;SDS011;9379;52.134;11.576;2022-11-14T08:50:21;27.40;;;16.38;;
18499;SDS011;9379;52.134;11.576;2022-11-14T08:52:48;20.52;;;15.85;;
18499;SDS011;9379;52.134;11.576;2022-11-14T08:55:17;24.70;;;17.17;;
18499;SDS011;9379;52.134;11.576;2022-11-14T08:57:46;25.42;;;17.42;;
18499;SDS011;9379;52.134;11.576;2022-11-14T09:00:13;28.55;;;17.23;;
18499;SDS011;9379;52.134;11.576;2022-11-14T09:02:41;32.47;;;20.38;;
18499;SDS011;9379;52.134;11.576;2022-11-14T09:05:07;28.20;;;18.83;;
18499;SDS011;9379;52.134;11.576;2022-11-14T09:07:35;26.67;;;17.70;;
18499;SDS011;9379;52.134;11.576;2022-11-14T09:10:02;32.75;;;17.83;;
18499;SDS011;9379;52.134;11.576;2022-11-14T09:12:31;29.50;;;19.33;;
18499;SDS011;9379;52.134;11.576;2022-11-14T09:14:59;28.33;;;17.08;;
18499;SDS011;9379;52.134;11.576;2022-11-14T09:17:25;29.80;;;20.48;;
18499;SDS011;9379;52.134;11.576;2022-11-14T09:19:52;29.35;;;17.60;;
18499;SDS011;9379;52.134;11.576;2022-11-14T09:22:19;24.83;;;16.85;;
18499;SDS011;9379;52.134;11.576;2022-11-14T09:24:46;24.92;;;17.02;;
18499;SDS011;9379;52.134;11.576;2022-11-14T09:27:13;28.63;;;19.50;;
18499;SDS011;9379;52.134;11.576;2022-11-14T09:29:42;24.33;;;17.92;;
18499;SDS011;9379;52.134;11.576;2022-11-14T09:32:09;24.70;;;16.77;;
18499;SDS011;9379;52.134;11.576;2022-11-14T09:34:36;19.95;;;16.08;;
18499;SDS011;9379;52.134;11.576;2022-11-14T09:37:07;23.73;;;16.77;;
18499;SDS011;9379;52.134;11.576;2022-11-14T09:39:33;19.23;;;13.32;;
18499;SDS011;9379;52.134;11.576;2022-11-14T09:42:09;22.85;;;16.52;;
18499;SDS011;9379;52.134;11.576;2022-11-14T09:44:57;25.15;;;16.33;;
18499;SDS011;9379;52.134;11.576;2022-11-14T09:47:27;25.85;;;15.02;;
18499;SDS011;9379;52.134;11.576;2022-11-14T09:49:59;17.27;;;12.75;;
18499;SDS011;9379;52.134;11.576;2022-11-14T09:52:32;21.73;;;16.05;;
18499;SDS011;9379;52.134;11.576;2022-11-14T09:55:03;23.58;;;16.50;;
18499;SDS011;9379;52.134;11.576;2022-11-14T09:57:37;22.25;;;16.17;;
18499;SDS011;9379;52.134;11.576;2022-11-14T10:00:12;29.17;;;17.60;;
18499;SDS011;9379;52.134;11.576;2022-11-14T10:02:43;24.45;;;15.02;;
18499;SDS011;9379;52.134;11.576;2022-11-14T10:05:28;23.65;;;16.92;;
18499;SDS011;9379;52.134;11.576;2022-11-14T10:11:00;29.95;;;16.67;;
18499;SDS011;9379;52.134;11.576;2022-11-14T10:13:41;25.40;;;15.98;;
18499;SDS011;9379;52.134;11.576;2022-11-14T10:16:21;22.92;;;16.25;;
18499;SDS011;9379;52.134;11.576;2022-11-14T10:18:57;21.08;;;15.38;;
18499;SDS011;9379;52.134;11.576;2022-11-14T10:21:38;17.58;;;13.85;;
18499;SDS011;9379;52.134;11.576;2022-11-14T10:24:16;19.08;;;14.88;;
18499;SDS011;9379;52.134;11.576;2022-11-14T10:26:58;23.15;;;15.98;;
18499;SDS011;9379;52.134;11.576;2022-11-14T10:29:44;22.00;;;15.23;;
18499;SDS011;9379;52.134;11.576;2022-11-14T10:32:31;18.60;;;12.55;;
18499;SDS011;9379;52.134;11.576;2022-11-14T10:35:08;26.15;;;17.65;;
18499;SDS011;9379;52.134;11.576;2022-11-14T10:37:40;21.88;;;16.52;;
18499;SDS011;9379;52.134;11.576;2022-11-14T10:40:17;20.73;;;14.52;;
18499;SDS011;9379;52.134;11.576;2022-11-14T10:42:48;25.08;;;15.32;;
18499;SDS011;9379;52.134;11.576;2022-11-14T10:45:22;24.73;;;15.00;;
18499;SDS011;9379;52.134;11.576;2022-11-14T10:47:55;20.60;;;15.30;;
18499;SDS011;9379;52.134;11.576;2022-11-14T10:50:26;22.77;;;13.85;;
18499;SDS011;9379;52.134;11.576;2022-11-14T10:53:06;21.27;;;14.98;;
18499;SDS011;9379;52.134;11.576;2022-11-14T10:55:44;23.15;;;16.00;;
18499;SDS011;9379;52.134;11.576;2022-11-14T10:58:15;20.65;;;15.45;;
18499;SDS011;9379;52.134;11.576;2022-11-14T11:00:41;17.48;;;14.32;;
18499;SDS011;9379;52.134;11.576;2022-11-14T11:03:09;22.30;;;15.02;;
18499;SDS011;9379;52.134;11.576;2022-11-14T11:05:43;20.60;;;16.90;;
18499;SDS011;9379;52.134;11.576;2022-11-14T11:08:12;16.35;;;13.73;;
18499;SDS011;9379;52.134;11.576;2022-11-14T11:11:02;21.10;;;15.48;;
18499;SDS011;9379;52.134;11.576;2022-11-14T11:13:52;22.02;;;15.52;;
18499;SDS011;9379;52.134;11.576;2022-11-14T11:16:21;21.70;;;16.45;;
18499;SDS011;9379;52.134;11.576;2022-11-14T11:18:50;17.52;;;14.52;;
18499;SDS011;9379;52.134;11.576;2022-11-14T11:21:18;18.88;;;14.70;;
18499;SDS011;9379;52.134;11.576;2022-11-14T11:23:47;15.75;;;12.55;;
18499;SDS011;9379;52.134;11.576;2022-11-14T11:26:16;21.60;;;15.95;;
18499;SDS011;9379;52.134;11.576;2022-11-14T11:29:00;21.95;;;14.93;;
18499;SDS011;9379;52.134;11.576;2022-11-14T11:31:47;20.95;;;14.00;;
18499;SDS011;9379;52.134;11.576;2022-11-14T11:34:21;17.40;;;13.57;;
18499;SDS011;9379;52.134;11.576;2022-11-14T11:36:52;19.13;;;13.55;;
18499;SDS011;9379;52.134;11.576;2022-11-14T11:39:22;19.38;;;13.45;;
18499;SDS011;9379;52.134;11.576;2022-11-14T11:41:53;19.63;;;14.95;;
18499;SDS011;9379;52.134;11.576;2022-11-14T11:44:22;18.52;;;14.35;;
18499;SDS011;9379;52.134;11.576;2022-11-14T11:46:57;17.50;;;12.63;;
18499;SDS011;9379;52.134;11.576;2022-11-14T11:49:31;16.90;;;13.55;;
18499;SDS011;9379;52.134;11.576;2022-11-14T11:52:09;14.70;;;12.15;;
18499;SDS011;9379;52.134;11.576;2022-11-14T11:54:43;22.75;;;14.63;;
18499;SDS011;9379;52.134;11.576;2022-11-14T11:57:17;19.60;;;14.82;;
18499;SDS011;9379;52.134;11.576;2022-11-14T11:59:48;20.05;;;15.68;;
18499;SDS011;9379;52.134;11.576;2022-11-14T12:02:19;18.30;;;14.40;;
18499;SDS011;9379;52.134;11.576;2022-11-14T12:04:50;19.60;;;12.75;;
18499;SDS011;9379;52.134;11.576;2022-11-14T12:07:18;14.30;;;11.75;;
18499;SDS011;9379;52.134;11.576;2022-11-14T12:09:49;17.02;;;14.55;;
18499;SDS011;9379;52.134;11.576;2022-11-14T12:12:20;13.98;;;11.80;;
18499;SDS011;9379;52.134;11.576;2022-11-14T12:17:50;18.10;;;13.98;;
18499;SDS011;9379;52.134;11.576;2022-11-14T12:20:43;16.35;;;13.88;;
18499;SDS011;9379;52.134;11.576;2022-11-14T12:23:25;16.67;;;13.30;;
18499;SDS011;9379;52.134;11.576;2022-11-14T12:26:19;13.95;;;12.13;;
18499;SDS011;9379;52.134;11.576;2022-11-14T12:31:48;17.75;;;13.52;;
18499;SDS011;9379;52.134;11.576;2022-11-14T12:34:21;13.70;;;11.50;;
18499;SDS011;9379;52.134;11.576;2022-11-14T12:36:53;15.55;;;13.23;;
18499;SDS011;9379;52.134;11.576;2022-11-14T12:39:21;14.20;;;12.65;;
18499;SDS011;9379;52.134;11.576;2022-11-14T12:41:50;13.85;;;11.20;;
18499;SDS011;9379;52.134;11.576;2022-11-14T12:44:32;11.40;;;9.77;;
18499;SDS011;9379;52.134;11.576;2022-11-14T12:47:12;12.60;;;11.25;;
18499;SDS011;9379;52.134;11.576;2022-11-14T12:49:57;20.05;;;14.25;;
18499;SDS011;9379;52.134;11.576;2022-11-14T12:52:50;15.23;;;11.38;;
18499;SDS011;9379;52.134;11.576;2022-11-14T12:58:34;12.43;;;11.18;;
18499;SDS011;9379;52.134;11.576;2022-11-14T13:01:23;14.82;;;12.88;;
18499;SDS011;9379;52.134;11.576;2022-11-14T13:04:05;14.93;;;12.40;;
18499;SDS011;9379;52.134;11.576;2022-11-14T13:06:44;19.80;;;10.73;;
18499;SDS011;9379;52.134;11.576;2022-11-14T13:09:30;15.27;;;12.02;;
18499;SDS011;9379;52.134;11.576;2022-11-14T13:12:07;18.52;;;11.57;;
18499;SDS011;9379;52.134;11.576;2022-11-14T13:15:25;15.80;;;12.60;;
18499;SDS011;9379;52.134;11.576;2022-11-14T13:18:18;15.00;;;13.30;;
18499;SDS011;9379;52.134;11.576;2022-11-14T13:21:06;15.52;;;11.52;;
18499;SDS011;9379;52.134;11.576;2022-11-14T13:24:00;14.23;;;11.73;;
18499;SDS011;9379;52.134;11.576;2022-11-14T13:26:47;17.23;;;12.23;;
18499;SDS011;9379;52.134;11.576;2022-11-14T13:35:31;14.63;;;11.68;;
18499;SDS011;9379;52.134;11.576;2022-11-14T13:41:24;13.13;;;10.15;;
18499;SDS011;9379;52.134;11.576;2022-11-14T13:44:03;11.43;;;9.18;;
18499;SDS011;9379;52.134;11.576;2022-11-14T13:46:47;11.38;;;10.00;;
18499;SDS011;9379;52.134;11.576;2022-11-14T13:49:31;12.73;;;11.43;;
18499;SDS011;9379;52.134;11.576;2022-11-14T13:52:14;19.58;;;14.15;;
18499;SDS011;9379;52.134;11.576;2022-11-14T13:54:44;12.57;;;11.15;;
18499;SDS011;9379;52.134;11.576;2022-11-14T13:57:14;12.45;;;10.98;;
18499;SDS011;9379;52.134;11.576;2022-11-14T13:59:55;12.93;;;11.25;;
18499;SDS011;9379;52.134;11.576;2022-11-14T14:02:35;11.50;;;10.18;;
18499;SDS011;9379;52.134;11.576;2022-11-14T14:05:15;14.05;;;11.23;;
18499;SDS011;9379;52.134;11.576;2022-11-14T14:07:57;20.65;;;13.07;;
18499;SDS011;9379;52.134;11.576;2022-11-14T14:10:37;15.32;;;13.57;;
18499;SDS011;9379;52.134;11.576;2022-11-14T14:13:17;11.52;;;10.25;;
18499;SDS011;9379;52.134;11.576;2022-11-14T14:15:55;15.15;;;11.60;;
18499;SDS011;9379;52.134;11.576;2022-11-14T14:18:34;16.90;;;11.82;;
18499;SDS011;9379;52.134;11.576;2022-11-14T14:21:23;18.63;;;11.40;;
18499;SDS011;9379;52.134;11.576;2022-11-14T14:24:00;13.82;;;10.15;;
18499;SDS011;9379;52.134;11.576;2022-11-14T14:26:37;16.73;;;13.32;;
18499;SDS011;9379;52.134;11.576;2022-11-14T14:29:21;39.15;;;13.90;;
18499;SDS011;9379;52.134;11.576;2022-11-14T14:31:53;16.42;;;12.60;;
18499;SDS011;9379;52.134;11.576;2022-11-14T14:34:31;16.55;;;12.90;;
18499;SDS011;9379;52.134;11.576;2022-11-14T14:36:59;16.10;;;14.40;;
18499;SDS011;9379;52.134;11.576;2022-11-14T14:39:26;13.70;;;11.70;;
18499;SDS011;9379;52.134;11.576;2022-11-14T14:41:55;12.70;;;10.50;;
18499;SDS011;9379;52.134;11.576;2022-11-14T14:44:24;13.18;;;11.77;;
18499;SDS011;9379;52.134;11.576;2022-11-14T14:46:55;14.32;;;12.82;;
18499;SDS011;9379;52.134;11.576;2022-11-14T14:49:23;14.90;;;12.68;;
18499;SDS011;9379;52.134;11.576;2022-11-14T14:51:53;16.02;;;10.88;;
18499;SDS011;9379;52.134;11.576;2022-11-14T14:54:20;10.40;;;9.25;;
18499;SDS011;9379;52.134;11.576;2022-11-14T14:56:52;11.18;;;8.88;;
18499;SDS011;9379;52.134;11.576;2022-11-14T14:59:22;11.18;;;9.48;;
18499;SDS011;9379;52.134;11.576;2022-11-14T15:01:50;12.23;;;10.68;;
18499;SDS011;9379;52.134;11.576;2022-11-14T15:04:20;11.45;;;9.50;;
18499;SDS011;9379;52.134;11.576;2022-11-14T15:06:48;15.63;;;10.82;;
18499;SDS011;9379;52.134;11.576;2022-11-14T15:09:16;11.10;;;8.75;;